Accueil
METAR-TAF:

METAR-TAF

Aéroports :

Aérodrome d'Ísafjörður

Ísafjörður, Islande

latitude: 66-03-29N, longitude: 23-08-07W, altitude: 2 m

Observation

Le bulletin a été fait il y a 5 heures et 36 minutes, à 17:50 UTC
Vent 10 kt de sud-ouest
Température 6°C
Humidité 52%
Pression 1017 hPa
Visibilité 10 km ou plus
Nuages épars à une hauteur de 3500 ft

METAR: BIIS 201750Z 23010KT 9999 SCT035 06/M03 Q1017

Heure: 23:26 (23:26 UTC)

Prévision

Le bulletin a été fait il y a 7 heures et 20 minutes, à 16:06 UTC
Prévision valable du 20 à 17 UTC au 21 à 02 UTC
Vent 10 kt de sud/sud-ouest
Visibilité 10 km ou plus
Nuages fragmentés à une hauteur de 3500 ft
Probabilité 40% :
Temporairement
du 20 à 17 UTC au 21 à 02 UTC
Vent 15 kt de sud/sud-ouest avec des rafales jusqu'à 25 kt

TAF: BIIS 201606Z 2017/2102 20010KT 9999 BKN035 PROB40 TEMPO 2017/2102 20015G25KT

Observations et prévisions météorologiques de plus de 4000 aéroports (messages METAR et TAF).

Les stations disponibles sont représentées par des disques jaunes et rouges sur la carte.

Passer la souris dessus pour voir le nom de la station.

Cliquer dessus pour voir les observations et prévisions météorologiques.

Pour changer de carte: cliquez sur les boutons verts avec une croix noire pour zoomer, sur le bouton vert avec un tiret pour effectuer un zoom arrière, ou sur les flèches vertes pour les cartes adjacentes.


METAR-TAF: